Time;durP1;ratioP1;P1;durP2;ratioP2;P2;SDS_P1;SDS_P2;PMS_P1;PMS_P2;Temp;Humidity;BMP_temperature;BMP_pressure;BME280_temperature;BME280_humidity;BME280_pressure;Samples;Min_cycle;Max_cycle;Signal;HPM_P1;HPM_P2
2021/03/26 00:00:52;;;;;;;3.60;0.40;;;8.40;99.90;;;;;;5093619;28;20193;-69
2021/03/26 00:03:22;;;;;;;3.70;0.60;;;8.40;99.90;;;;;;5095096;28;20179;-70
2021/03/26 00:05:50;;;;;;;4.30;1.88;;;8.30;99.90;;;;;;5094042;28;20285;-70
2021/03/26 00:08:16;;;;;;;3.60;0.30;;;8.30;99.90;;;;;;5094961;28;20166;-69
2021/03/26 00:10:43;;;;;;;3.65;0.63;;;8.30;99.90;;;;;;5094674;28;20178;-69
2021/03/26 00:13:09;;;;;;;3.60;0.40;;;8.40;99.90;;;;;;5094945;28;20205;-69
2021/03/26 00:15:35;;;;;;;3.50;0.60;;;8.40;99.90;;;;;;5093720;28;20206;-69
2021/03/26 00:18:02;;;;;;;3.50;0.40;;;8.40;99.90;;;;;;5094515;28;20223;-70
2021/03/26 00:20:28;;;;;;;3.60;0.80;;;8.50;99.90;;;;;;5094828;28;20179;-69
2021/03/26 00:22:53;;;;;;;3.40;0.30;;;8.50;99.90;;;;;;5093927;28;20178;-68
2021/03/26 00:25:19;;;;;;;3.57;0.40;;;8.50;99.90;;;;;;5094284;28;20562;-68
2021/03/26 00:27:45;;;;;;;3.60;0.40;;;8.50;99.90;;;;;;5094565;28;20191;-70
2021/03/26 00:30:12;;;;;;;3.70;0.60;;;8.50;99.90;;;;;;5094450;28;20175;-69
2021/03/26 00:32:38;;;;;;;3.60;0.40;;;8.50;99.90;;;;;;5094511;28;20553;-69
2021/03/26 00:35:07;;;;;;;4.90;1.15;;;8.60;99.90;;;;;;5093690;28;20259;-69
2021/03/26 00:37:33;;;;;;;4.55;1.50;;;8.60;99.90;;;;;;5094223;28;20268;-70
2021/03/26 00:39:59;;;;;;;3.90;0.87;;;8.60;99.90;;;;;;5094316;28;20644;-70
2021/03/26 00:42:24;;;;;;;3.60;0.40;;;8.60;99.90;;;;;;5094573;28;20171;-70
2021/03/26 00:44:50;;;;;;;3.60;0.37;;;8.70;99.90;;;;;;5093682;28;20269;-68
2021/03/26 00:47:16;;;;;;;3.57;0.40;;;8.60;99.90;;;;;;5094337;28;20192;-70
2021/03/26 00:49:42;;;;;;;3.60;0.57;;;8.60;99.90;;;;;;5094396;28;20794;-70
2021/03/26 00:52:09;;;;;;;4.30;1.63;;;8.60;99.90;;;;;;5093915;28;20446;-69
2021/03/26 00:54:34;;;;;;;3.50;0.50;;;8.60;99.90;;;;;;5075377;28;20230;-68
2021/03/26 00:57:00;;;;;;;4.17;1.43;;;8.50;99.90;;;;;;5093951;28;20206;-69
2021/03/26 00:59:26;;;;;;;3.70;0.70;;;8.50;99.90;;;;;;5094225;28;20194;-71
2021/03/26 01:01:52;;;;;;;3.53;0.43;;;8.40;99.90;;;;;;5093396;28;20453;-69
2021/03/26 01:04:18;;;;;;;3.60;0.40;;;8.40;99.90;;;;;;5093620;28;20174;-69
2021/03/26 01:06:44;;;;;;;3.60;0.40;;;8.30;99.90;;;;;;5093719;28;20202;-69
2021/03/26 01:09:10;;;;;;;3.90;1.30;;;8.30;99.90;;;;;;5093774;28;20701;-70
2021/03/26 01:11:37;;;;;;;3.63;0.60;;;8.30;99.90;;;;;;5093802;28;20181;-69
2021/03/26 01:14:14;;;;;;;3.80;1.02;;;8.10;99.90;;;;;;5093550;28;20738;-68
2021/03/26 01:16:40;;;;;;;3.60;0.40;;;8.10;99.90;;;;;;5093081;28;20202;-67
2021/03/26 01:19:07;;;;;;;3.60;0.50;;;8.00;99.90;;;;;;5073442;28;20180;-68
2021/03/26 01:21:35;;;;;;;3.65;0.50;;;7.90;99.90;;;;;;5088106;28;20174;-69
2021/03/26 01:24:03;;;;;;;3.70;0.40;;;7.70;99.90;;;;;;5093697;28;20173;-68
2021/03/26 01:26:29;;;;;;;3.67;0.40;;;7.60;99.90;;;;;;5093332;28;20197;-69
2021/03/26 01:28:54;;;;;;;3.60;0.40;;;7.50;99.90;;;;;;5093773;28;20202;-68
2021/03/26 01:31:21;;;;;;;3.70;0.50;;;7.50;99.90;;;;;;5093213;28;20179;-69
2021/03/26 01:33:47;;;;;;;3.65;0.50;;;7.40;99.90;;;;;;5093118;28;20193;-69
2021/03/26 01:36:13;;;;;;;3.60;0.40;;;7.40;99.90;;;;;;5093317;28;20196;-68
2021/03/26 01:38:39;;;;;;;3.63;0.50;;;7.30;99.90;;;;;;5092101;28;20172;-69
2021/03/26 01:41:13;;;;;;;3.60;0.40;;;7.30;99.90;;;;;;5093610;28;20689;-69
2021/03/26 01:43:42;;;;;;;3.63;0.40;;;7.30;99.90;;;;;;5093403;28;20528;-68
2021/03/26 01:46:10;;;;;;;3.70;0.55;;;7.20;99.90;;;;;;5083679;28;20196;-68
2021/03/26 01:48:45;;;;;;;3.72;0.60;;;7.20;99.90;;;;;;5093500;28;20574;-68
2021/03/26 01:51:34;;;;;;;3.70;0.55;;;7.10;99.90;;;;;;5093266;28;20179;-69
2021/03/26 01:54:01;;;;;;;3.65;0.40;;;7.30;99.90;;;;;;5092379;28;20240;-68
2021/03/26 01:56:28;;;;;;;3.80;0.77;;;7.20;99.90;;;;;;5091965;28;20196;-69
2021/03/26 01:58:54;;;;;;;3.58;0.50;;;7.10;99.90;;;;;;5093384;28;20225;-68
2021/03/26 02:01:27;;;;;;;3.70;0.40;;;7.00;99.90;;;;;;5073159;28;20173;-70
2021/03/26 02:03:57;;;;;;;3.58;0.40;;;7.00;99.90;;;;;;5072841;28;20790;-70
2021/03/26 02:06:34;;;;;;;3.90;0.75;;;7.00;99.90;;;;;;5092999;28;20286;-69
2021/03/26 02:09:19;;;;;;;3.70;0.40;;;6.90;99.90;;;;;;5092635;28;20669;-70
2021/03/26 02:12:02;;;;;;;3.70;0.40;;;6.90;99.90;;;;;;5073095;28;20173;-69
2021/03/26 02:14:43;;;;;;;3.60;0.43;;;6.80;99.90;;;;;;5092260;28;20179;-68
2021/03/26 02:17:15;;;;;;;3.70;0.50;;;6.70;99.90;;;;;;5092694;28;20584;-69
2021/03/26 02:20:32;;;;;;;3.63;0.45;;;6.70;99.90;;;;;;5092979;28;20176;-68
2021/03/26 02:23:08;;;;;;;3.70;0.40;;;6.60;99.90;;;;;;5066781;28;20181;-68
2021/03/26 02:25:35;;;;;;;3.63;0.40;;;6.50;99.90;;;;;;5089389;28;20288;-68
2021/03/26 02:28:01;;;;;;;3.80;0.80;;;6.50;99.90;;;;;;5096863;28;20173;-69
2021/03/26 02:30:36;;;;;;;3.67;0.40;;;6.40;99.90;;;;;;5096626;28;20182;-69
2021/03/26 02:33:02;;;;;;;3.72;0.90;;;6.40;99.90;;;;;;5097004;28;20449;-68
2021/03/26 02:35:30;;;;;;;3.47;0.45;;;6.40;99.90;;;;;;5095927;28;20211;-68
2021/03/26 02:38:28;;;;;;;3.58;0.50;;;6.40;99.90;;;;;;5096705;28;20627;-69
2021/03/26 02:41:13;;;;;;;3.50;0.50;;;6.40;99.90;;;;;;5062296;28;20188;-69
2021/03/26 02:43:54;;;;;;;3.50;0.40;;;6.40;99.90;;;;;;5096866;28;20168;-68
2021/03/26 02:46:28;;;;;;;3.40;0.40;;;6.40;99.90;;;;;;5096330;28;20191;-70
2021/03/26 02:49:38;;;;;;;3.50;0.40;;;6.40;99.90;;;;;;5096628;28;20176;-69
2021/03/26 02:52:31;;;;;;;3.47;0.40;;;6.40;99.90;;;;;;5051633;28;20189;-68
2021/03/26 02:55:09;;;;;;;3.70;1.13;;;6.40;99.90;;;;;;5095966;28;20171;-69
2021/03/26 02:57:43;;;;;;;3.53;0.40;;;6.40;99.90;;;;;;5096596;28;20697;-69
2021/03/26 03:00:18;;;;;;;4.15;1.33;;;6.40;99.90;;;;;;5095848;28;20171;-69
2021/03/26 03:02:45;;;;;;;3.50;0.40;;;6.40;99.90;;;;;;5096525;28;20183;-69
2021/03/26 03:05:16;;;;;;;3.60;0.57;;;6.40;99.90;;;;;;5095619;28;20275;-68
2021/03/26 03:07:52;;;;;;;3.40;0.40;;;6.40;99.90;;;;;;5096508;28;20164;-70
2021/03/26 03:10:46;;;;;;;3.50;0.40;;;6.30;99.90;;;;;;5095659;28;20526;-69
2021/03/26 03:13:27;;;;;;;4.25;2.05;;;6.30;99.90;;;;;;5095898;28;20199;-69
2021/03/26 03:16:00;;;;;;;3.50;0.40;;;6.20;99.90;;;;;;5095712;28;20191;-68
2021/03/26 03:18:35;;;;;;;3.50;0.40;;;6.20;99.90;;;;;;5095603;28;20641;-68
2021/03/26 03:21:27;;;;;;;3.53;0.40;;;6.20;99.90;;;;;;5096173;28;20183;-70
2021/03/26 03:24:11;;;;;;;3.60;0.70;;;6.10;99.90;;;;;;5095717;28;20305;-70
2021/03/26 03:26:49;;;;;;;3.45;0.30;;;6.10;99.90;;;;;;5095958;28;20194;-68
2021/03/26 03:29:36;;;;;;;3.50;0.40;;;6.00;99.90;;;;;;5095625;28;20172;-69
2021/03/26 03:32:18;;;;;;;3.50;0.40;;;6.00;99.90;;;;;;5095228;28;20188;-68
2021/03/26 03:34:50;;;;;;;3.53;0.70;;;5.80;99.90;;;;;;5095149;28;20573;-68
2021/03/26 03:37:35;;;;;;;4.03;0.95;;;5.70;99.90;;;;;;5093817;28;20619;-69
2021/03/26 03:40:24;;;;;;;3.50;0.40;;;5.60;99.90;;;;;;5074224;28;20172;-69
2021/03/26 03:43:05;;;;;;;3.60;0.40;;;5.60;99.90;;;;;;5077051;28;20581;-67
2021/03/26 03:45:41;;;;;;;4.35;0.93;;;5.40;99.90;;;;;;5095289;28;20187;-70
2021/03/26 03:48:24;;;;;;;4.00;0.98;;;5.40;99.90;;;;;;5095452;28;20207;-68
2021/03/26 03:51:21;;;;;;;3.70;0.60;;;5.40;99.90;;;;;;5095548;28;20886;-67
2021/03/26 03:54:00;;;;;;;4.13;0.95;;;5.40;99.90;;;;;;5094568;28;20210;-68
2021/03/26 03:56:40;;;;;;;3.60;0.50;;;5.30;99.90;;;;;;5094128;28;20184;-69
2021/03/26 03:59:12;;;;;;;3.63;0.40;;;5.30;99.90;;;;;;5093433;28;20515;-70
2021/03/26 04:02:02;;;;;;;3.70;1.13;;;5.20;99.90;;;;;;5095454;28;20185;-70
2021/03/26 04:04:50;;;;;;;3.70;0.60;;;5.10;99.90;;;;;;5093346;28;20635;-70
2021/03/26 04:07:20;;;;;;;3.50;0.40;;;5.10;99.90;;;;;;5094901;28;20558;-70
2021/03/26 04:09:55;;;;;;;8.48;1.60;;;5.10;99.90;;;;;;5094983;28;20196;-69
2021/03/26 04:12:26;;;;;;;3.50;0.65;;;5.10;99.90;;;;;;5095091;28;20183;-69
2021/03/26 04:15:10;;;;;;;3.30;0.50;;;5.10;99.90;;;;;;5094097;28;20255;-70
2021/03/26 04:18:02;;;;;;;3.40;0.70;;;5.10;99.90;;;;;;5094462;28;20191;-69
2021/03/26 04:20:34;;;;;;;3.50;0.88;;;5.10;99.90;;;;;;5094931;28;20507;-70
2021/03/26 04:23:06;;;;;;;3.10;0.40;;;5.00;99.90;;;;;;5094337;28;20172;-70
2021/03/26 04:25:36;;;;;;;3.20;0.40;;;5.00;99.90;;;;;;5093066;28;20242;-69
2021/03/26 04:28:08;;;;;;;3.15;0.40;;;5.00;99.90;;;;;;5095003;28;20168;-68
2021/03/26 04:30:53;;;;;;;3.10;0.50;;;5.10;99.90;;;;;;5094571;28;20250;-70
2021/03/26 04:33:19;;;;;;;3.15;0.60;;;5.10;99.90;;;;;;5094207;28;20195;-69
2021/03/26 04:35:48;;;;;;;3.05;0.40;;;5.20;99.90;;;;;;5094217;28;20184;-69
2021/03/26 04:38:38;;;;;;;3.05;0.30;;;5.20;99.90;;;;;;5093696;28;20213;-69
2021/03/26 04:41:30;;;;;;;3.00;0.40;;;5.20;99.90;;;;;;5094610;28;20251;-70
2021/03/26 04:44:33;;;;;;;3.20;1.13;;;5.20;99.90;;;;;;5082500;28;20193;-70
2021/03/26 04:47:09;;;;;;;3.00;0.52;;;5.20;99.90;;;;;;5094110;28;20188;-69
2021/03/26 04:49:38;;;;;;;2.90;0.50;;;5.20;99.90;;;;;;5094001;28;20530;-69
2021/03/26 04:52:13;;;;;;;2.85;0.40;;;5.10;99.90;;;;;;5093866;28;20169;-69
2021/03/26 04:54:51;;;;;;;2.90;0.40;;;5.10;99.90;;;;;;5092164;28;20641;-69
2021/03/26 04:57:30;;;;;;;2.75;0.40;;;5.10;99.90;;;;;;5094040;28;20210;-68
2021/03/26 05:00:17;;;;;;;2.80;0.45;;;5.10;99.90;;;;;;5092520;28;20633;-68
2021/03/26 05:02:47;;;;;;;2.80;0.40;;;5.10;99.90;;;;;;5093891;28;20271;-71
2021/03/26 05:05:15;;;;;;;2.80;0.40;;;5.00;99.90;;;;;;5073457;28;20179;-70
2021/03/26 05:07:44;;;;;;;2.72;0.50;;;5.00;99.90;;;;;;5082795;28;20531;-70
2021/03/26 05:10:16;;;;;;;2.70;0.40;;;5.00;99.90;;;;;;5073610;28;20180;-68
2021/03/26 05:12:47;;;;;;;2.80;0.68;;;5.10;99.90;;;;;;5075825;28;20192;-69
2021/03/26 05:15:20;;;;;;;2.70;0.70;;;5.10;99.90;;;;;;5093474;28;20241;-69
2021/03/26 05:17:54;;;;;;;2.65;0.55;;;5.20;99.90;;;;;;5093651;28;20191;-68
2021/03/26 05:20:36;;;;;;;3.13;1.38;;;5.10;99.90;;;;;;5093955;28;20629;-69
2021/03/26 05:23:01;;;;;;;2.58;0.40;;;5.10;99.90;;;;;;5093491;28;20168;-70
2021/03/26 05:25:35;;;;;;;2.50;0.50;;;5.10;99.90;;;;;;5093329;28;20244;-68
2021/03/26 05:28:11;;;;;;;2.50;0.40;;;5.10;99.90;;;;;;5093148;28;20259;-69
2021/03/26 05:30:39;;;;;;;2.50;0.40;;;5.10;99.90;;;;;;5093807;28;20179;-69
2021/03/26 05:33:28;;;;;;;2.50;0.50;;;5.10;99.90;;;;;;5093317;28;20245;-71
2021/03/26 05:35:56;;;;;;;2.40;0.40;;;5.10;99.90;;;;;;5092987;28;20183;-71
2021/03/26 05:38:53;;;;;;;2.33;0.40;;;5.10;99.90;;;;;;5093465;28;20643;-70
2021/03/26 05:41:38;;;;;;;2.30;0.40;;;5.20;99.90;;;;;;5093424;28;20168;-70
2021/03/26 05:44:19;;;;;;;2.40;0.40;;;5.30;99.90;;;;;;5073088;28;20899;-70
2021/03/26 05:47:02;;;;;;;2.30;0.40;;;5.30;99.90;;;;;;5074567;28;20189;-71
2021/03/26 05:49:45;;;;;;;2.40;0.50;;;5.50;99.90;;;;;;5093048;28;20194;-70
2021/03/26 05:52:36;;;;;;;2.63;1.25;;;5.50;99.90;;;;;;5093290;28;20507;-70
2021/03/26 05:55:37;;;;;;;2.38;0.52;;;5.60;99.90;;;;;;5092477;28;20203;-70
2021/03/26 05:58:31;;;;;;;2.88;1.67;;;5.80;99.90;;;;;;5096276;28;20192;-70
2021/03/26 06:01:11;;;;;;;2.33;0.43;;;6.00;99.90;;;;;;5067829;28;20188;-70
2021/03/26 06:04:02;;;;;;;2.67;1.08;;;6.30;99.90;;;;;;5094503;28;20707;-69
2021/03/26 06:06:43;;;;;;;2.40;0.40;;;6.60;99.90;;;;;;5084534;28;20532;-68
2021/03/26 06:09:23;;;;;;;2.50;0.50;;;6.80;99.90;;;;;;5096124;28;20581;-69
2021/03/26 06:11:58;;;;;;;2.70;0.50;;;7.00;99.90;;;;;;5097114;28;20181;-69
2021/03/26 06:14:44;;;;;;;3.70;1.20;;;7.30;99.90;;;;;;5076246;28;20516;-68
2021/03/26 06:17:13;;;;;;;3.20;0.85;;;7.60;99.90;;;;;;5076502;28;20230;-69
2021/03/26 06:19:56;;;;;;;3.30;0.95;;;7.90;99.90;;;;;;5090670;28;20220;-71
2021/03/26 06:22:37;;;;;;;3.20;0.40;;;8.10;99.90;;;;;;5096993;28;20178;-69
2021/03/26 06:25:21;;;;;;;4.32;1.10;;;8.20;99.90;;;;;;5095187;28;20179;-69
2021/03/26 06:28:39;;;;;;;3.70;0.70;;;8.30;99.90;;;;;;5095578;28;20668;-69
2021/03/26 06:31:42;;;;;;;3.85;0.40;;;8.40;99.90;;;;;;5053672;28;20271;-68
2021/03/26 06:34:45;;;;;;;3.92;0.70;;;8.60;99.90;;;;;;5080183;28;20202;-69
2021/03/26 06:37:30;;;;;;;4.50;1.02;;;8.90;99.90;;;;;;5096715;28;20591;-68
2021/03/26 06:40:03;;;;;;;5.97;1.55;;;9.50;99.90;;;;;;5096330;28;20199;-70
2021/03/26 06:42:44;;;;;;;3.90;0.47;;;10.10;99.90;;;;;;5096692;28;20180;-70
2021/03/26 06:45:29;;;;;;;3.70;0.40;;;10.50;99.90;;;;;;5096030;28;20207;-70
2021/03/26 06:48:14;;;;;;;3.60;0.40;;;10.90;99.90;;;;;;5096458;28;20199;-70
2021/03/26 06:51:01;;;;;;;3.80;0.50;;;11.40;99.90;;;;;;5076266;28;20174;-67
2021/03/26 06:53:42;;;;;;;4.10;1.23;;;11.70;99.90;;;;;;5087901;28;20239;-67
2021/03/26 06:56:37;;;;;;;3.83;0.40;;;11.80;99.90;;;;;;5096477;28;20426;-68
2021/03/26 06:59:37;;;;;;;3.90;0.40;;;11.80;99.60;;;;;;5095667;28;20426;-68
2021/03/26 07:02:14;;;;;;;3.90;0.50;;;11.70;99.20;;;;;;5076333;28;20660;-67
2021/03/26 07:05:16;;;;;;;5.85;1.63;;;11.80;99.90;;;;;;5083093;28;20635;-67
2021/03/26 07:08:39;;;;;;;4.03;0.60;;;11.90;99.60;;;;;;5084674;28;20193;-68
2021/03/26 07:11:36;;;;;;;3.90;0.30;;;12.10;99.00;;;;;;5045318;28;20178;-68
2021/03/26 07:14:17;;;;;;;3.80;0.40;;;12.10;98.60;;;;;;5075412;28;20451;-66
2021/03/26 07:17:13;;;;;;;4.00;0.73;;;12.00;98.60;;;;;;5075630;28;20479;-66
2021/03/26 07:20:14;;;;;;;4.60;0.87;;;12.20;99.50;;;;;;5079495;28;20691;-65
2021/03/26 07:23:07;;;;;;;4.53;0.73;;;12.60;99.00;;;;;;5073368;28;20414;-68
2021/03/26 07:25:44;;;;;;;3.83;0.47;;;13.10;98.00;;;;;;5095427;28;20474;-68
2021/03/26 07:28:27;;;;;;;4.10;0.80;;;13.60;97.30;;;;;;5095275;28;20421;-66
2021/03/26 07:31:17;;;;;;;3.70;0.43;;;14.10;96.20;;;;;;5095733;28;20402;-68
2021/03/26 07:33:56;;;;;;;3.80;0.50;;;14.70;95.40;;;;;;5095293;28;20439;-69
2021/03/26 07:36:50;;;;;;;4.10;0.50;;;14.80;94.10;;;;;;5095022;28;20439;-69
2021/03/26 07:39:37;;;;;;;4.00;0.83;;;15.00;94.30;;;;;;5095841;28;20391;-68
2021/03/26 07:42:19;;;;;;;4.93;0.80;;;15.40;93.50;;;;;;5095484;28;20428;-69
2021/03/26 07:44:50;;;;;;;4.83;1.47;;;15.50;93.00;;;;;;5093569;28;20423;-70
2021/03/26 07:47:59;;;;;;;3.90;0.90;;;15.80;92.60;;;;;;5095350;28;20417;-69
2021/03/26 07:50:36;;;;;;;3.70;0.60;;;16.10;91.50;;;;;;5095713;28;20397;-69
2021/03/26 07:53:29;;;;;;;4.00;1.07;;;16.40;91.80;;;;;;5095136;28;20981;-69
2021/03/26 07:56:37;;;;;;;5.40;0.60;;;16.80;91.20;;;;;;5094449;28;20434;-69
2021/03/26 07:59:24;;;;;;;4.93;1.43;;;17.30;90.30;;;;;;5095310;28;20750;-67
2021/03/26 08:02:09;;;;;;;5.90;1.03;;;17.90;89.40;;;;;;5095433;28;20400;-70
2021/03/26 08:04:52;;;;;;;4.83;2.20;;;18.60;87.50;;;;;;5094830;28;20425;-69
2021/03/26 08:07:36;;;;;;;5.77;1.13;;;19.50;84.30;;;;;;5094965;28;20410;-69
2021/03/26 08:10:35;;;;;;;3.63;1.17;;;20.40;81.60;;;;;;5094677;28;20489;-68
2021/03/26 08:13:10;;;;;;;3.33;0.53;;;21.40;76.10;;;;;;5094789;28;20543;-67
2021/03/26 08:16:01;;;;;;;3.43;0.57;;;21.70;73.50;;;;;;5094443;28;20487;-67
2021/03/26 08:19:08;;;;;;;3.33;0.77;;;22.10;71.80;;;;;;5094362;28;20437;-67
2021/03/26 08:21:49;;;;;;;3.30;0.80;;;22.60;70.00;;;;;;5094614;28;20398;-67
2021/03/26 08:24:37;;;;;;;4.13;0.73;;;23.00;68.80;;;;;;5094308;28;20497;-67
2021/03/26 08:27:28;;;;;;;3.40;1.03;;;23.60;63.50;;;;;;5094904;28;20505;-68
2021/03/26 08:30:23;;;;;;;5.87;2.03;;;23.90;63.40;;;;;;5093954;28;20500;-68
2021/03/26 08:33:16;;;;;;;6.77;3.27;;;24.00;62.50;;;;;;5092967;28;20458;-68
2021/03/26 08:35:53;;;;;;;3.40;1.27;;;24.50;61.40;;;;;;5092227;28;20811;-67
2021/03/26 08:38:55;;;;;;;3.10;1.33;;;24.40;58.80;;;;;;5092658;28;20418;-67
2021/03/26 08:41:27;;;;;;;4.40;1.43;;;24.70;58.80;;;;;;5092149;28;20508;-67
2021/03/26 08:43:56;;;;;;;3.83;1.33;;;25.10;58.20;;;;;;5092132;28;20410;-67
2021/03/26 08:46:38;;;;;;;3.77;1.50;;;25.30;57.00;;;;;;5090885;28;20955;-68
2021/03/26 08:49:21;;;;;;;3.73;1.87;;;25.30;56.30;;;;;;5093426;28;20430;-68
2021/03/26 08:52:08;;;;;;;4.70;3.40;;;25.00;56.70;;;;;;5093274;28;20435;-70
2021/03/26 08:55:26;;;;;;;3.07;1.33;;;24.80;57.00;;;;;;5092012;28;20429;-66
2021/03/26 08:58:03;;;;;;;2.60;0.80;;;25.20;56.40;;;;;;5076252;28;20407;-68
2021/03/26 09:00:43;;;;;;;3.40;1.40;;;25.30;55.40;;;;;;5094198;28;20402;-68
2021/03/26 09:03:28;;;;;;;2.70;0.87;;;25.00;55.30;;;;;;5093580;28;20388;-67
2021/03/26 09:06:21;;;;;;;2.80;0.70;;;25.40;55.60;;;;;;5093646;28;20418;-68
2021/03/26 09:09:15;;;;;;;2.70;1.03;;;26.20;54.80;;;;;;5094044;28;20402;-68
2021/03/26 09:12:18;;;;;;;2.97;0.87;;;26.70;53.30;;;;;;5093541;28;20458;-66
2021/03/26 09:15:14;;;;;;;3.00;1.50;;;27.10;52.60;;;;;;5091824;28;20394;-68
2021/03/26 09:17:49;;;;;;;4.03;2.00;;;27.50;51.70;;;;;;5093069;28;20430;-70
2021/03/26 09:20:26;;;;;;;3.23;1.70;;;27.70;51.70;;;;;;5094013;28;20405;-68
2021/03/26 09:23:14;;;;;;;4.23;1.27;;;27.50;50.80;;;;;;5092421;28;20445;-68
2021/03/26 09:25:45;;;;;;;4.13;1.70;;;27.50;51.30;;;;;;5092773;28;20420;-68
2021/03/26 09:28:24;;;;;;;5.23;2.67;;;27.50;51.30;;;;;;5093764;28;20430;-68
2021/03/26 09:31:16;;;;;;;3.90;1.80;;;27.30;51.30;;;;;;5081936;28;20453;-68
2021/03/26 09:34:04;;;;;;;2.80;0.83;;;27.40;50.50;;;;;;5073329;28;20401;-68
2021/03/26 09:36:38;;;;;;;2.87;1.40;;;27.70;50.40;;;;;;5081590;28;20433;-69
2021/03/26 09:39:13;;;;;;;2.70;1.20;;;27.50;49.80;;;;;;5093170;28;20461;-69
2021/03/26 09:41:53;;;;;;;3.00;1.57;;;27.10;50.10;;;;;;5080960;28;20392;-72
2021/03/26 09:44:33;;;;;;;3.20;1.10;;;27.00;50.70;;;;;;5079428;28;20523;-70
2021/03/26 09:47:03;;;;;;;2.70;1.23;;;27.00;50.60;;;;;;5082377;28;21041;-68
2021/03/26 09:49:37;;;;;;;3.07;1.00;;;27.00;50.30;;;;;;5073410;28;20423;-66
2021/03/26 09:52:32;;;;;;;4.43;1.57;;;27.10;50.50;;;;;;5088988;28;20432;-69
2021/03/26 09:55:20;;;;;;;2.40;1.10;;;27.50;50.00;;;;;;5092835;28;20978;-72
2021/03/26 09:58:13;;;;;;;3.23;1.63;;;27.50;50.00;;;;;;5073376;28;20403;-75
2021/03/26 10:01:12;;;;;;;3.60;1.73;;;27.80;49.30;;;;;;5071830;28;20382;-73
2021/03/26 10:03:53;;;;;;;2.97;1.33;;;28.50;48.30;;;;;;5068379;28;20553;-70
2021/03/26 10:06:56;;;;;;;2.50;1.50;;;28.70;48.60;;;;;;5085119;28;20408;-70
2021/03/26 10:09:31;;;;;;;2.27;0.73;;;28.60;46.80;;;;;;5093369;28;20471;-70
2021/03/26 10:11:59;;;;;;;2.20;0.63;;;28.10;47.20;;;;;;5091949;28;20384;-71
2021/03/26 10:14:30;;;;;;;2.57;1.07;;;27.30;48.60;;;;;;5092524;28;20385;-70
2021/03/26 10:17:25;;;;;;;2.87;0.93;;;26.90;48.60;;;;;;5092854;28;20418;-70
2021/03/26 10:19:55;;;;;;;4.23;1.67;;;26.60;50.10;;;;;;5093093;28;20376;-67
2021/03/26 10:22:24;;;;;;;6.20;1.20;;;26.90;50.10;;;;;;5092924;28;20460;-69
2021/03/26 10:24:58;;;;;;;2.50;1.00;;;27.30;49.70;;;;;;5091212;28;20377;-70
2021/03/26 10:27:30;;;;;;;2.50;0.60;;;27.40;48.00;;;;;;5091740;28;20392;-71
2021/03/26 10:30:04;;;;;;;3.00;1.33;;;27.50;47.30;;;;;;5092127;28;20400;-68
2021/03/26 10:32:33;;;;;;;3.20;1.27;;;27.60;47.20;;;;;;5092889;28;20405;-68
2021/03/26 10:35:09;;;;;;;2.80;1.43;;;27.40;47.60;;;;;;5092329;28;20907;-67
2021/03/26 10:37:57;;;;;;;2.10;0.47;;;27.10;48.20;;;;;;5093092;28;20772;-68
2021/03/26 10:40:25;;;;;;;2.30;0.60;;;26.70;48.20;;;;;;5092566;28;20946;-69
2021/03/26 10:43:11;;;;;;;2.40;0.90;;;26.30;47.60;;;;;;5094204;28;20442;-69
2021/03/26 10:45:51;;;;;;;2.63;0.90;;;26.10;48.30;;;;;;5096285;28;20511;-71
2021/03/26 10:48:44;;;;;;;2.40;0.63;;;25.30;49.40;;;;;;5096116;28;20461;-69
2021/03/26 10:51:26;;;;;;;2.60;0.97;;;25.50;50.40;;;;;;5096793;28;20383;-71
2021/03/26 10:54:11;;;;;;;2.67;1.00;;;25.70;49.30;;;;;;5096368;28;20398;-69
2021/03/26 10:56:56;;;;;;;2.30;0.80;;;25.80;49.60;;;;;;5095078;28;20966;-68
2021/03/26 10:59:54;;;;;;;2.50;0.63;;;26.00;48.80;;;;;;5092801;28;20402;-69
2021/03/26 11:02:30;;;;;;;2.90;0.90;;;25.80;48.80;;;;;;5095936;28;20414;-70
2021/03/26 11:05:24;;;;;;;2.30;0.70;;;25.60;49.00;;;;;;5095734;28;20409;-70
2021/03/26 11:08:01;;;;;;;2.83;1.20;;;25.10;49.70;;;;;;5093371;28;20426;-71
2021/03/26 11:10:34;;;;;;;2.20;0.40;;;24.80;49.00;;;;;;5095221;28;20858;-70
2021/03/26 11:13:24;;;;;;;2.20;0.50;;;24.80;50.10;;;;;;5093748;28;20423;-72
2021/03/26 11:16:31;;;;;;;2.20;0.40;;;24.60;50.70;;;;;;5094838;28;20476;-71
2021/03/26 11:19:34;;;;;;;2.17;0.40;;;23.90;49.30;;;;;;5033484;28;20522;-71
2021/03/26 11:22:37;;;;;;;3.20;1.03;;;23.20;50.20;;;;;;5050879;28;20426;-70
2021/03/26 11:25:11;;;;;;;2.20;0.30;;;22.30;51.40;;;;;;5041222;28;20524;-71
2021/03/26 11:27:50;;;;;;;4.13;0.53;;;21.40;53.00;;;;;;5075598;28;20400;-69
2021/03/26 11:30:37;;;;;;;2.30;0.30;;;20.70;54.10;;;;;;5075373;28;20754;-72
2021/03/26 11:33:37;;;;;;;2.60;0.40;;;20.30;54.10;;;;;;5075979;28;20411;-70
2021/03/26 11:36:32;;;;;;;2.30;0.47;;;19.70;55.90;;;;;;5075031;28;20419;-68
2021/03/26 11:39:12;;;;;;;2.30;0.50;;;19.60;56.80;;;;;;5067269;28;20502;-69
2021/03/26 11:41:56;;;;;;;2.27;0.30;;;19.50;56.60;;;;;;5095208;28;20878;-70
2021/03/26 11:44:31;;;;;;;2.50;0.60;;;19.50;55.70;;;;;;5094439;28;20454;-69
2021/03/26 11:47:01;;;;;;;2.30;0.30;;;19.40;55.70;;;;;;5095540;28;20418;-69
2021/03/26 11:49:32;;;;;;;2.30;0.50;;;19.50;56.70;;;;;;5093956;28;20455;-69
2021/03/26 11:52:09;;;;;;;3.83;0.60;;;19.30;56.90;;;;;;5095583;28;20399;-69
2021/03/26 11:54:41;;;;;;;2.30;0.40;;;19.20;55.80;;;;;;5095070;28;20421;-69
2021/03/26 11:57:38;;;;;;;2.50;0.70;;;19.10;55.70;;;;;;5095215;28;20797;-69
2021/03/26 12:00:20;;;;;;;2.23;0.20;;;19.00;56.30;;;;;;5095398;28;20752;-68
2021/03/26 12:02:55;;;;;;;2.50;0.80;;;19.10;58.00;;;;;;5092866;28;20457;-70
2021/03/26 12:05:59;;;;;;;2.73;0.70;;;19.20;57.40;;;;;;5093622;28;20448;-69
2021/03/26 12:08:31;;;;;;;2.30;0.40;;;19.30;57.30;;;;;;5094061;28;20421;-68
2021/03/26 12:11:00;;;;;;;2.60;0.73;;;19.40;55.90;;;;;;5094908;28;20483;-69
2021/03/26 12:13:35;;;;;;;2.30;0.50;;;19.40;55.10;;;;;;5094437;28;20415;-69
2021/03/26 12:16:15;;;;;;;2.30;0.40;;;19.40;54.80;;;;;;5093281;28;20444;-68
2021/03/26 12:18:58;;;;;;;2.30;0.30;;;19.30;55.50;;;;;;5094712;28;20424;-68
2021/03/26 12:21:41;;;;;;;2.30;0.30;;;19.40;53.80;;;;;;5094813;28;20407;-68
2021/03/26 12:24:31;;;;;;;2.30;0.40;;;19.30;54.10;;;;;;5094205;28;20484;-68
2021/03/26 12:27:03;;;;;;;2.23;0.40;;;19.40;53.10;;;;;;5094422;28;20473;-67
2021/03/26 12:29:35;;;;;;;3.63;1.30;;;19.30;52.30;;;;;;5094477;28;20423;-67
2021/03/26 12:32:24;;;;;;;2.23;0.40;;;19.20;52.70;;;;;;5093130;28;20413;-66
2021/03/26 12:34:55;;;;;;;2.30;0.30;;;19.20;54.40;;;;;;5088047;28;20449;-67
2021/03/26 12:37:31;;;;;;;2.30;0.43;;;19.20;55.00;;;;;;5094454;28;20412;-65
2021/03/26 12:40:05;;;;;;;2.30;0.30;;;19.30;54.70;;;;;;5094271;28;20413;-67
2021/03/26 12:42:41;;;;;;;2.30;0.20;;;19.30;54.40;;;;;;5092841;28;20752;-68
2021/03/26 12:45:18;;;;;;;2.80;1.20;;;19.20;54.30;;;;;;5094130;28;20491;-65
2021/03/26 12:47:50;;;;;;;2.30;0.93;;;19.20;54.40;;;;;;5092367;28;20916;-67
2021/03/26 12:50:55;;;;;;;2.30;0.30;;;19.10;54.80;;;;;;5093536;28;20403;-66
2021/03/26 12:53:37;;;;;;;2.77;0.80;;;19.20;55.20;;;;;;5094019;28;20427;-65
2021/03/26 12:56:20;;;;;;;3.07;0.87;;;19.20;54.90;;;;;;5093066;28;20513;-64
2021/03/26 12:59:01;;;;;;;2.30;0.50;;;19.20;55.40;;;;;;5089522;28;20561;-64
2021/03/26 13:01:29;;;;;;;2.30;0.30;;;19.20;55.00;;;;;;5073907;28;20455;-67
2021/03/26 13:03:57;;;;;;;2.53;0.57;;;19.30;55.20;;;;;;5071793;28;20543;-65
2021/03/26 13:06:35;;;;;;;2.60;0.50;;;19.30;55.20;;;;;;5089348;28;20444;-65
2021/03/26 13:09:26;;;;;;;2.50;0.70;;;19.40;54.60;;;;;;5092581;28;20403;-66
2021/03/26 13:12:04;;;;;;;2.40;0.80;;;19.40;52.70;;;;;;5093649;28;20396;-65
2021/03/26 13:14:51;;;;;;;2.23;0.30;;;19.20;53.20;;;;;;5092896;28;20404;-65
2021/03/26 13:17:24;;;;;;;2.27;0.40;;;19.10;54.40;;;;;;5091842;28;20474;-65
2021/03/26 13:19:50;;;;;;;2.30;0.30;;;19.10;54.60;;;;;;5093682;28;20393;-66
2021/03/26 13:22:39;;;;;;;2.30;0.30;;;19.00;54.40;;;;;;5093657;28;20500;-66
2021/03/26 13:25:14;;;;;;;2.30;0.40;;;19.00;54.00;;;;;;5088895;28;20435;-66
2021/03/26 13:27:46;;;;;;;3.13;1.13;;;19.00;54.20;;;;;;5092751;28;20392;-65
2021/03/26 13:30:12;;;;;;;2.23;0.30;;;19.10;53.40;;;;;;5093337;28;20432;-66
2021/03/26 13:32:58;;;;;;;2.23;0.30;;;19.20;53.10;;;;;;5093606;28;20417;-66
2021/03/26 13:35:42;;;;;;;2.20;0.20;;;19.30;53.10;;;;;;5093043;28;20283;-65
2021/03/26 13:38:11;;;;;;;2.50;0.60;;;19.40;53.70;;;;;;5093403;28;20449;-66
2021/03/26 13:40:45;;;;;;;2.50;0.67;;;19.40;53.40;;;;;;5093196;28;20520;-66
2021/03/26 13:43:27;;;;;;;2.40;0.60;;;19.40;53.10;;;;;;5093985;28;20450;-65
2021/03/26 13:46:01;;;;;;;3.37;2.03;;;19.40;52.60;;;;;;5092941;28;20429;-66
2021/03/26 13:48:49;;;;;;;2.60;0.50;;;19.40;53.60;;;;;;5093284;28;20416;-65
2021/03/26 13:51:17;;;;;;;2.30;0.30;;;19.40;54.00;;;;;;5093165;28;20900;-65
2021/03/26 13:53:56;;;;;;;2.30;0.50;;;19.40;54.10;;;;;;5092970;28;20414;-65
2021/03/26 13:56:38;;;;;;;2.20;0.20;;;19.50;54.00;;;;;;5093090;28;20530;-66
2021/03/26 13:59:35;;;;;;;2.50;0.43;;;19.50;53.40;;;;;;5093354;28;20768;-65